Time;durP1;ratioP1;P1;durP2;ratioP2;P2;SDS_P1;SDS_P2;PMS_P1;PMS_P2;Temp;Humidity;BMP_temperature;BMP_pressure;BME280_temperature;BME280_humidity;BME280_pressure;Samples;Min_cycle;Max_cycle;Signal;HPM_P1;HPM_P2
2022/08/24 08:42:17;;;;;;;;;4.00;4.00;;;;;;;;1575412;27;83565;-69
2022/08/24 08:43:05;;;;;;;;;3.25;3.25;;;;;;;;1559585;28;83426;-69
2022/08/24 08:44:00;;;;;;;;;4.25;4.25;;;;;;;;1563709;27;83325;-69
2022/08/24 08:44:51;;;;;;;;;6.50;6.50;;;;;;;;1565937;27;83479;-70
2022/08/24 08:45:43;;;;;;;;;4.00;4.00;;;;;;;;1565840;27;83968;-70
2022/08/24 08:46:44;;;;;;;;;4.00;4.00;;;;;;;;1565832;27;83394;-70
2022/08/24 08:47:43;;;;;;;;;3.50;3.50;;;;;;;;1563190;27;83412;-71
2022/08/24 08:48:31;;;;;;;;;4.00;4.00;;;;;;;;1559524;28;83441;-73
2022/08/24 08:49:23;;;;;;;;;3.50;3.50;;;;;;;;1559563;28;83425;-70
2022/08/24 08:50:20;;;;;;;;;2.00;2.00;;;;;;;;1558892;28;86258;-73
2022/08/24 08:51:19;;;;;;;;;4.20;4.20;;;;;;;;1559053;28;83433;-73
2022/08/24 08:52:25;;;;;;;;;3.80;3.80;;;;;;;;1559556;28;83423;-73
2022/08/24 08:53:14;;;;;;;;;4.00;4.00;;;;;;;;1559420;28;83298;-73
2022/08/24 08:54:08;;;;;;;;;5.40;4.00;;;;;;;;1559593;28;83578;-68
2022/08/24 08:54:56;;;;;;;;;3.00;3.00;;;;;;;;1559684;28;83414;-69
2022/08/24 08:55:44;;;;;;;;;3.80;3.80;;;;;;;;1559544;28;84161;-67
2022/08/24 08:56:44;;;;;;;;;3.40;3.40;;;;;;;;1559459;28;83618;-70
2022/08/24 08:57:32;;;;;;;;;4.00;4.00;;;;;;;;1562524;27;83596;-70
2022/08/24 08:58:21;;;;;;;;;3.60;3.60;;;;;;;;1565723;27;83580;-67
2022/08/24 08:59:15;;;;;;;;;2.00;2.00;;;;;;;;1565089;27;85233;-69
2022/08/24 09:00:08;;;;;;;;;4.80;4.80;;;;;;;;1565348;27;83508;-67
2022/08/24 09:01:08;;;;;;;;;3.00;3.00;;;;;;;;1565732;27;83724;-73
2022/08/24 09:01:56;;;;;;;;;3.00;3.00;;;;;;;;1565797;27;83919;-68
2022/08/24 09:03:20;;;;;;;;;2.00;2.00;;;;;;;;1559636;27;83632;-69
2022/08/24 09:04:08;;;;;;;;;3.00;3.00;;;;;;;;1558251;28;83474;-68
2022/08/24 09:05:12;;;;;;;;;2.00;2.00;;;;;;;;1558126;28;83285;-69
2022/08/24 09:06:09;;;;;;;;;2.00;2.00;;;;;;;;1558901;28;83385;-69
2022/08/24 09:07:07;;;;;;;;;1.40;1.40;;;;;;;;1558875;28;83568;-69
2022/08/24 09:07:55;;;;;;;;;2.00;2.00;;;;;;;;1561653;28;83249;-67
2022/08/24 09:09:01;;;;;;;;;2.00;2.00;;;;;;;;1558809;28;83887;-69
2022/08/24 09:09:55;;;;;;;;;2.00;2.00;;;;;;;;1558764;28;83983;-69
2022/08/24 09:10:50;;;;;;;;;2.00;2.00;;;;;;;;1558668;28;84005;-70
2022/08/24 09:12:05;;;;;;;;;2.00;2.00;;;;;;;;1558688;28;84141;-69
2022/08/24 09:12:51;;;;;;;;;2.40;2.40;;;;;;;;1537370;28;84176;-70
2022/08/24 09:13:36;;;;;;;;;1.40;1.40;;;;;;;;1558635;28;83912;-70
2022/08/24 09:14:39;;;;;;;;;1.25;1.25;;;;;;;;1557851;28;85513;-71
2022/08/24 09:15:30;;;;;;;;;0.00;0.00;;;;;;;;1558474;28;83903;-70
2022/08/24 09:16:23;;;;;;;;;2.00;2.00;;;;;;;;1551578;28;86177;-71
2022/08/24 09:17:17;;;;;;;;;2.00;2.00;;;;;;;;1550132;28;84047;-70
2022/08/24 09:18:09;;;;;;;;;1.00;1.00;;;;;;;;1550287;28;84209;-71
2022/08/24 09:19:14;;;;;;;;;1.60;1.60;;;;;;;;1552406;28;84105;-70
2022/08/24 09:20:08;;;;;;;;;1.60;1.60;;;;;;;;1551761;28;84707;-71
2022/08/24 09:20:54;;;;;;;;;0.20;0.20;;;;;;;;1552345;28;83948;-72
2022/08/24 09:21:51;;;;;;;;;1.00;1.00;;;;;;;;1552228;28;84562;-72
2022/08/24 09:22:46;;;;;;;;;1.00;1.00;;;;;;;;1552138;28;84509;-72
2022/08/24 09:23:50;;;;;;;;;0.00;0.00;;;;;;;;1552168;28;84251;-71
2022/08/24 09:25:01;;;;;;;;;1.00;1.00;;;;;;;;1555592;28;84043;-69
2022/08/24 09:26:01;;;;;;;;;1.00;1.00;;;;;;;;1554562;28;84031;-70
2022/08/24 09:26:52;;;;;;;;;0.00;0.00;;;;;;;;1557886;28;83293;-68
2022/08/24 09:27:40;;;;;;;;;0.00;0.00;;;;;;;;1558521;28;84214;-71
2022/08/24 09:28:26;;;;;;;;;0.00;0.00;;;;;;;;1558371;28;84010;-71
2022/08/24 09:29:14;;;;;;;;;0.00;0.00;;;;;;;;1558515;28;84515;-70
2022/08/24 09:30:02;;;;;;;;;1.60;1.60;;;;;;;;1558640;28;83774;-70
2022/08/24 09:31:05;;;;;;;;;0.20;0.20;;;;;;;;1558491;28;84041;-70
2022/08/24 09:31:56;;;;;;;;;0.00;0.00;;;;;;;;1551535;28;85280;-70
2022/08/24 09:32:57;;;;;;;;;0.40;0.40;;;;;;;;1552457;28;83993;-71
2022/08/24 09:34:04;;;;;;;;;0.40;0.40;;;;;;;;1557294;28;84187;-71
2022/08/24 09:34:55;;;;;;;;;0.00;0.00;;;;;;;;1561340;28;83398;-68
2022/08/24 09:35:50;;;;;;;;;0.00;0.00;;;;;;;;1556348;28;83379;-68
2022/08/24 09:36:41;;;;;;;;;0.00;0.00;;;;;;;;1553061;28;83201;-67
2022/08/24 09:37:38;;;;;;;;;0.00;0.00;;;;;;;;1553078;28;83358;-66
2022/08/24 09:38:34;;;;;;;;;0.00;0.00;;;;;;;;1553159;28;83199;-66
2022/08/24 09:39:22;;;;;;;;;0.00;0.00;;;;;;;;1553114;28;83268;-66
2022/08/24 09:40:07;;;;;;;;;0.00;0.00;;;;;;;;1553142;28;83337;-66
2022/08/24 09:40:59;;;;;;;;;0.25;0.25;;;;;;;;1553206;28;83329;-66
2022/08/24 09:41:44;;;;;;;;;0.00;0.00;;;;;;;;1554514;28;83465;-67
2022/08/24 09:42:29;;;;;;;;;0.00;0.00;;;;;;;;1559329;28;83516;-66
2022/08/24 09:43:20;;;;;;;;;0.00;0.00;;;;;;;;1559208;28;83485;-66
2022/08/24 09:44:08;;;;;;;;;0.00;0.00;;;;;;;;1559376;28;83174;-66
2022/08/24 09:44:54;;;;;;;;;0.00;0.00;;;;;;;;1559288;28;83392;-66
2022/08/24 09:45:39;;;;;;;;;0.00;0.00;;;;;;;;1559286;28;83489;-67
2022/08/24 09:46:24;;;;;;;;;0.00;0.00;;;;;;;;1559133;28;83502;-67
2022/08/24 09:47:27;;;;;;;;;0.00;0.00;;;;;;;;1559366;28;83241;-67
2022/08/24 09:48:19;;;;;;;;;0.00;0.00;;;;;;;;1559280;28;83360;-66
2022/08/24 09:49:05;;;;;;;;;0.00;0.00;;;;;;;;1559406;28;82841;-67
2022/08/24 09:50:02;;;;;;;;;0.00;0.00;;;;;;;;1558807;28;83527;-67
2022/08/24 09:51:00;;;;;;;;;0.00;0.00;;;;;;;;1558841;28;84562;-67
2022/08/24 09:52:04;;;;;;;;;0.00;0.00;;;;;;;;1557475;27;83572;-66
2022/08/24 09:52:49;;;;;;;;;0.00;0.00;;;;;;;;1558073;27;83503;-67
2022/08/24 09:53:45;;;;;;;;;0.00;0.00;;;;;;;;1554139;28;83522;-67
2022/08/24 09:55:03;;;;;;;;;0.00;0.00;;;;;;;;1554979;28;83624;-66
2022/08/24 09:55:51;;;;;;;;;0.00;0.00;;;;;;;;1548266;28;83301;-66
2022/08/24 09:56:40;;;;;;;;;0.00;0.00;;;;;;;;1547498;28;83678;-66
2022/08/24 09:57:25;;;;;;;;;0.00;0.00;;;;;;;;1548883;28;83025;-66
2022/08/24 09:58:26;;;;;;;;;0.00;0.00;;;;;;;;1552302;28;83312;-66
2022/08/24 09:59:41;;;;;;;;;0.00;0.00;;;;;;;;1557942;28;83254;-66
2022/08/24 10:00:29;;;;;;;;;0.00;0.00;;;;;;;;1550138;28;83505;-67
2022/08/24 10:01:17;;;;;;;;;0.00;0.00;;;;;;;;1555145;28;83535;-66
2022/08/24 10:02:02;;;;;;;;;0.00;0.00;;;;;;;;1555189;28;83543;-66
2022/08/24 10:02:53;;;;;;;;;0.00;0.00;;;;;;;;1554799;28;83336;-66
2022/08/24 10:03:57;;;;;;;;;0.00;0.00;;;;;;;;1554658;28;83537;-66
2022/08/24 10:05:01;;;;;;;;;0.00;0.00;;;;;;;;1554542;28;83686;-66
2022/08/24 10:06:04;;;;;;;;;0.00;0.00;;;;;;;;1555083;28;83326;-68
2022/08/24 10:06:52;;;;;;;;;0.00;0.00;;;;;;;;1552854;28;83489;-67
2022/08/24 10:07:38;;;;;;;;;0.00;0.00;;;;;;;;1554632;28;83358;-67
2022/08/24 10:08:32;;;;;;;;;0.00;0.00;;;;;;;;1554881;28;83335;-67
2022/08/24 10:09:23;;;;;;;;;0.00;0.00;;;;;;;;1554956;28;83366;-67
2022/08/24 10:10:27;;;;;;;;;0.00;0.00;;;;;;;;1555065;28;83457;-67
2022/08/24 10:11:18;;;;;;;;;0.00;0.00;;;;;;;;1554815;28;83442;-67
2022/08/24 10:12:22;;;;;;;;;0.00;0.00;;;;;;;;1554293;28;83522;-67
2022/08/24 10:13:17;;;;;;;;;0.00;0.00;;;;;;;;1558750;28;83523;-67
2022/08/24 10:14:04;;;;;;;;;0.00;0.00;;;;;;;;1561256;27;83206;-67
2022/08/24 10:15:08;;;;;;;;;0.00;0.00;;;;;;;;1561108;28;83575;-67
2022/08/24 10:16:14;;;;;;;;;0.00;0.00;;;;;;;;1561167;28;83468;-67
2022/08/24 10:17:08;;;;;;;;;0.00;0.00;;;;;;;;1550746;28;83788;-67
2022/08/24 10:18:12;;;;;;;;;0.00;0.00;;;;;;;;1553766;28;83714;-68
2022/08/24 10:19:15;;;;;;;;;0.00;0.00;;;;;;;;1552340;28;83596;-69
2022/08/24 10:20:06;;;;;;;;;0.00;0.00;;;;;;;;1547934;28;83550;-67
2022/08/24 10:21:05;;;;;;;;;0.00;0.00;;;;;;;;1547799;28;83406;-67
2022/08/24 10:22:05;;;;;;;;;0.00;0.00;;;;;;;;1547803;28;83417;-68
2022/08/24 10:23:08;;;;;;;;;0.00;0.00;;;;;;;;1547780;28;83625;-67
2022/08/24 10:24:14;;;;;;;;;0.00;0.00;;;;;;;;1548080;28;83536;-67
2022/08/24 10:25:00;;;;;;;;;0.60;0.60;;;;;;;;1547907;28;84051;-67
2022/08/24 10:25:51;;;;;;;;;0.00;0.00;;;;;;;;1550569;28;83628;-67
2022/08/24 10:26:43;;;;;;;;;0.00;0.00;;;;;;;;1547013;28;84720;-67
2022/08/24 10:27:47;;;;;;;;;0.40;0.40;;;;;;;;1547595;28;83329;-67
2022/08/24 10:28:42;;;;;;;;;0.00;0.00;;;;;;;;1547257;28;83131;-67
2022/08/24 10:29:46;;;;;;;;;0.00;0.00;;;;;;;;1549126;28;83308;-67
2022/08/24 10:30:38;;;;;;;;;0.00;0.00;;;;;;;;1541520;28;83843;-67
2022/08/24 10:31:30;;;;;;;;;1.00;1.00;;;;;;;;1541449;28;84104;-67
2022/08/24 10:32:33;;;;;;;;;0.00;0.00;;;;;;;;1543032;28;83323;-67
2022/08/24 10:33:19;;;;;;;;;0.00;0.00;;;;;;;;1547652;28;83991;-67
2022/08/24 10:34:17;;;;;;;;;0.25;0.25;;;;;;;;1551453;28;83872;-67
2022/08/24 10:35:06;;;;;;;;;0.00;0.00;;;;;;;;1554018;28;83251;-68
2022/08/24 10:35:54;;;;;;;;;0.00;0.00;;;;;;;;1552598;28;83900;-68
2022/08/24 10:36:42;;;;;;;;;0.40;0.40;;;;;;;;1547592;28;83847;-70
2022/08/24 10:37:30;;;;;;;;;0.40;0.40;;;;;;;;1547731;28;83877;-69
2022/08/24 10:40:00;;;;;;;;;0.00;0.00;;;;;;;;1547880;28;83714;-69
2022/08/24 10:40:54;;;;;;;;;0.00;0.00;;;;;;;;1550010;28;84188;-70
2022/08/24 10:41:58;;;;;;;;;0.00;0.00;;;;;;;;1551965;28;83817;-71
2022/08/24 10:43:57;;;;;;;;;2.80;2.80;;;;;;;;1544572;28;83782;-69
2022/08/24 10:44:43;;;;;;;;;539.40;456.60;;;;;;;;1551178;28;83869;-67
2022/08/24 10:45:48;;;;;;;;;544.00;483.00;;;;;;;;1552931;28;86136;-69
2022/08/24 10:46:42;;;;;;;;;102.00;96.00;;;;;;;;1549621;28;86366;-69
2022/08/24 10:47:29;;;;;;;;;268.00;258.20;;;;;;;;1547204;28;86439;-69
2022/08/24 10:48:14;;;;;;;;;168.00;168.00;;;;;;;;1547038;28;85622;-69
2022/08/24 10:49:15;;;;;;;;;57.33;48.00;;;;;;;;1552950;28;86522;-70
2022/08/24 10:50:18;;;;;;;;;28.20;28.20;;;;;;;;1553710;28;86394;-67
2022/08/24 10:51:27;;;;;;;;;88.60;85.80;;;;;;;;1549579;28;84019;-69
2022/08/24 10:52:40;;;;;;;;;94.40;93.00;;;;;;;;1547445;28;84035;-68
2022/08/24 10:53:27;;;;;;;;;321.50;315.75;;;;;;;;1550048;28;83300;-71
2022/08/24 10:54:12;;;;;;;;;92.80;90.80;;;;;;;;1547099;28;85850;-69
2022/08/24 10:55:11;;;;;;;;;31.00;30.25;;;;;;;;1551157;28;83320;-69
2022/08/24 10:56:04;;;;;;;;;4.00;4.00;;;;;;;;1552727;28;83309;-69
2022/08/24 10:56:56;;;;;;;;;8.40;8.40;;;;;;;;1548391;28;83567;-71
2022/08/24 10:57:47;;;;;;;;;36.00;33.00;;;;;;;;1548296;28;83483;-68
2022/08/24 10:58:40;;;;;;;;;49.75;42.50;;;;;;;;1548263;28;83487;-68
2022/08/24 10:59:44;;;;;;;;;19.40;19.40;;;;;;;;1548199;28;83386;-69
2022/08/24 11:00:29;;;;;;;;;3.00;3.00;;;;;;;;1548313;28;83040;-69
2022/08/24 11:01:22;;;;;;;;;2.00;2.00;;;;;;;;1548193;28;83323;-69
2022/08/24 11:02:08;;;;;;;;;10.20;10.20;;;;;;;;1552463;28;83516;-69
2022/08/24 11:03:11;;;;;;;;;6.25;6.25;;;;;;;;1557250;28;83306;-69
2022/08/24 11:04:05;;;;;;;;;1.80;1.80;;;;;;;;1560743;28;83494;-69
2022/08/24 11:05:00;;;;;;;;;1.00;1.00;;;;;;;;1559857;28;83531;-69
2022/08/24 11:05:48;;;;;;;;;3.80;3.80;;;;;;;;1560704;28;83317;-69
2022/08/24 11:06:38;;;;;;;;;4.40;4.40;;;;;;;;1558937;28;83477;-68
2022/08/24 11:07:23;;;;;;;;;1.00;1.00;;;;;;;;1548349;28;83537;-68
2022/08/24 11:08:11;;;;;;;;;0.00;0.00;;;;;;;;1548382;28;83298;-68
2022/08/24 11:09:02;;;;;;;;;1.00;1.00;;;;;;;;1553322;28;83366;-69
2022/08/24 11:09:52;;;;;;;;;1.20;1.20;;;;;;;;1554589;28;83196;-69
2022/08/24 11:10:38;;;;;;;;;0.00;0.00;;;;;;;;1554664;28;83454;-68
2022/08/24 11:11:29;;;;;;;;;0.00;0.00;;;;;;;;1554357;28;83154;-68
2022/08/24 11:12:26;;;;;;;;;1.00;1.00;;;;;;;;1554554;28;83291;-68
2022/08/24 11:13:22;;;;;;;;;2.40;2.40;;;;;;;;1554606;28;83442;-68
2022/08/24 11:14:21;;;;;;;;;4.60;4.60;;;;;;;;1554137;28;84524;-68
2022/08/24 11:15:18;;;;;;;;;3.00;3.00;;;;;;;;1554173;28;83035;-68
2022/08/24 11:16:04;;;;;;;;;0.60;0.60;;;;;;;;1554650;28;83240;-69
2022/08/24 11:16:49;;;;;;;;;0.20;0.20;;;;;;;;1550566;28;83290;-68
2022/08/24 11:17:35;;;;;;;;;1.00;1.00;;;;;;;;1551195;28;83512;-68
2022/08/24 11:18:21;;;;;;;;;0.00;0.00;;;;;;;;1548490;28;83511;-68
2022/08/24 11:19:08;;;;;;;;;0.00;0.00;;;;;;;;1548395;28;83566;-68
2022/08/24 11:19:55;;;;;;;;;0.40;0.40;;;;;;;;1548425;28;83527;-68
2022/08/24 11:20:42;;;;;;;;;0.00;0.00;;;;;;;;1548325;28;83372;-68
2022/08/24 11:21:40;;;;;;;;;0.20;0.20;;;;;;;;1548622;28;83594;-68
2022/08/24 11:22:35;;;;;;;;;0.00;0.00;;;;;;;;1548549;28;83627;-68
2022/08/24 11:23:23;;;;;;;;;0.00;0.00;;;;;;;;1558657;28;83442;-68
2022/08/24 11:24:23;;;;;;;;;0.00;0.00;;;;;;;;1560913;27;83444;-68
2022/08/24 11:25:09;;;;;;;;;0.00;0.00;;;;;;;;1560872;28;83819;-68
2022/08/24 11:26:00;;;;;;;;;0.40;0.40;;;;;;;;1560780;28;83575;-68
2022/08/24 11:26:49;;;;;;;;;0.00;0.00;;;;;;;;1560767;28;83507;-68
2022/08/24 11:27:37;;;;;;;;;1.00;1.00;;;;;;;;1560650;28;83667;-68
2022/08/24 11:28:31;;;;;;;;;0.80;0.80;;;;;;;;1560517;27;83423;-68
2022/08/24 11:29:17;;;;;;;;;0.20;0.20;;;;;;;;1560717;28;83535;-68
2022/08/24 11:30:17;;;;;;;;;0.00;0.00;;;;;;;;1560408;28;83503;-68
2022/08/24 11:31:02;;;;;;;;;0.00;0.00;;;;;;;;1560088;28;83460;-68
2022/08/24 11:31:49;;;;;;;;;0.00;0.00;;;;;;;;1548769;28;83937;-69
2022/08/24 11:32:37;;;;;;;;;0.00;0.00;;;;;;;;1548165;28;83589;-69
2022/08/24 11:33:33;;;;;;;;;0.00;0.00;;;;;;;;1548293;28;83603;-68
2022/08/24 11:34:30;;;;;;;;;0.80;0.80;;;;;;;;1548259;28;83412;-68
2022/08/24 11:35:24;;;;;;;;;1.00;1.00;;;;;;;;1548463;28;83984;-69
2022/08/24 11:36:18;;;;;;;;;0.00;0.00;;;;;;;;1548204;28;83578;-69
2022/08/24 11:37:09;;;;;;;;;0.00;0.00;;;;;;;;1558345;28;83570;-69
2022/08/24 11:37:55;;;;;;;;;0.00;0.00;;;;;;;;1560710;28;83472;-69
2022/08/24 11:38:41;;;;;;;;;0.20;0.20;;;;;;;;1560593;28;83241;-69
2022/08/24 11:39:29;;;;;;;;;0.00;0.00;;;;;;;;1560733;28;83402;-69
2022/08/24 11:40:15;;;;;;;;;0.40;0.40;;;;;;;;1560767;28;83507;-69
2022/08/24 11:41:15;;;;;;;;;0.20;0.20;;;;;;;;1560603;27;83580;-69
2022/08/24 11:42:03;;;;;;;;;0.20;0.20;;;;;;;;1563480;28;83281;-69
2022/08/24 11:43:05;;;;;;;;;0.00;0.00;;;;;;;;1560666;28;83271;-68
2022/08/24 11:44:06;;;;;;;;;0.00;0.00;;;;;;;;1560660;28;83965;-69
2022/08/24 11:44:55;;;;;;;;;0.00;0.00;;;;;;;;1547843;28;84008;-69
2022/08/24 11:45:55;;;;;;;;;0.40;0.40;;;;;;;;1548219;28;84752;-69
2022/08/24 11:46:53;;;;;;;;;0.80;0.80;;;;;;;;1549109;28;83995;-69
2022/08/24 11:47:50;;;;;;;;;0.20;0.20;;;;;;;;1548182;28;84558;-65
2022/08/24 11:48:50;;;;;;;;;0.00;0.00;;;;;;;;1548184;28;83989;-65
2022/08/24 11:49:57;;;;;;;;;0.00;0.00;;;;;;;;1548223;28;83982;-65
2022/08/24 11:50:43;;;;;;;;;0.00;0.00;;;;;;;;1551984;28;83980;-65
2022/08/24 11:51:38;;;;;;;;;0.00;0.00;;;;;;;;1551840;28;83936;-65
2022/08/24 11:52:39;;;;;;;;;0.00;0.00;;;;;;;;1559344;28;83161;-65
2022/08/24 11:53:38;;;;;;;;;0.00;0.00;;;;;;;;1560606;28;83149;-65
2022/08/24 11:54:33;;;;;;;;;0.00;0.00;;;;;;;;1559619;28;84013;-65
2022/08/24 11:55:29;;;;;;;;;0.00;0.00;;;;;;;;1554422;28;84419;-65
2022/08/24 11:56:29;;;;;;;;;0.00;0.00;;;;;;;;1554357;28;84022;-65
2022/08/24 11:57:24;;;;;;;;;0.00;0.00;;;;;;;;1548316;28;84081;-65
2022/08/24 11:58:09;;;;;;;;;0.00;0.00;;;;;;;;1548255;28;83965;-65
2022/08/24 11:59:09;;;;;;;;;0.00;0.00;;;;;;;;1552421;28;83234;-65
2022/08/24 12:00:21;;;;;;;;;0.00;0.00;;;;;;;;1554408;28;83995;-65
2022/08/24 12:01:16;;;;;;;;;0.00;0.00;;;;;;;;1548031;28;83823;-65
2022/08/24 12:02:09;;;;;;;;;0.00;0.00;;;;;;;;1548162;28;84112;-64
2022/08/24 12:03:10;;;;;;;;;0.00;0.00;;;;;;;;1552829;28;83981;-64
2022/08/24 12:03:59;;;;;;;;;0.00;0.00;;;;;;;;1554388;28;84001;-65
2022/08/24 12:05:02;;;;;;;;;0.00;0.00;;;;;;;;1554277;28;83771;-65
2022/08/24 12:05:56;;;;;;;;;0.00;0.00;;;;;;;;1554090;28;84027;-65
2022/08/24 12:06:59;;;;;;;;;0.00;0.00;;;;;;;;1548583;28;84037;-65
2022/08/24 12:08:03;;;;;;;;;0.00;0.00;;;;;;;;1548023;28;83976;-65
2022/08/24 12:08:57;;;;;;;;;0.00;0.00;;;;;;;;1557029;28;83995;-65
2022/08/24 12:09:42;;;;;;;;;0.00;0.00;;;;;;;;1554033;28;83149;-65
2022/08/24 12:10:45;;;;;;;;;0.00;0.00;;;;;;;;1554304;28;83024;-65
2022/08/24 12:11:37;;;;;;;;;0.00;0.00;;;;;;;;1553886;28;83531;-65
2022/08/24 12:12:40;;;;;;;;;0.00;0.00;;;;;;;;1554342;28;83290;-65
2022/08/24 12:13:31;;;;;;;;;0.00;0.00;;;;;;;;1553831;28;83498;-65
2022/08/24 12:14:24;;;;;;;;;0.00;0.00;;;;;;;;1554411;28;83157;-65
2022/08/24 12:15:11;;;;;;;;;0.00;0.00;;;;;;;;1554241;28;83583;-65
2022/08/24 12:16:12;;;;;;;;;0.00;0.00;;;;;;;;1551685;28;83433;-65
2022/08/24 12:17:03;;;;;;;;;0.00;0.00;;;;;;;;1555736;28;83589;-65
2022/08/24 12:17:54;;;;;;;;;0.00;0.00;;;;;;;;1560448;28;83562;-65
2022/08/24 12:19:01;;;;;;;;;0.00;0.00;;;;;;;;1559833;28;83494;-65
2022/08/24 12:20:00;;;;;;;;;0.00;0.00;;;;;;;;1556645;28;83427;-65
2022/08/24 12:20:48;;;;;;;;;0.00;0.00;;;;;;;;1553430;28;83342;-65
2022/08/24 12:21:36;;;;;;;;;0.00;0.00;;;;;;;;1556436;28;83552;-65
2022/08/24 12:22:22;;;;;;;;;0.00;0.00;;;;;;;;1558577;27;83339;-65
2022/08/24 12:23:15;;;;;;;;;0.00;0.00;;;;;;;;1560475;28;83547;-65
2022/08/24 12:24:07;;;;;;;;;0.00;0.00;;;;;;;;1560389;28;83335;-65
2022/08/24 12:24:58;;;;;;;;;0.00;0.00;;;;;;;;1554391;27;83514;-65
2022/08/24 12:26:00;;;;;;;;;0.00;0.00;;;;;;;;1554190;28;83494;-65
2022/08/24 12:26:51;;;;;;;;;0.00;0.00;;;;;;;;1554335;28;83506;-65
2022/08/24 12:27:37;;;;;;;;;0.00;0.00;;;;;;;;1554119;28;83520;-65
2022/08/24 12:28:29;;;;;;;;;0.00;0.00;;;;;;;;1554004;28;83124;-65
2022/08/24 12:29:22;;;;;;;;;0.00;0.00;;;;;;;;1554322;28;83394;-65
2022/08/24 12:30:11;;;;;;;;;0.00;0.00;;;;;;;;1554186;28;83472;-65
2022/08/24 12:31:01;;;;;;;;;0.00;0.00;;;;;;;;1549700;28;83478;-65
2022/08/24 12:32:05;;;;;;;;;0.00;0.00;;;;;;;;1547868;28;83160;-65
2022/08/24 12:32:55;;;;;;;;;0.00;0.00;;;;;;;;1547870;28;83494;-65
2022/08/24 12:33:44;;;;;;;;;0.00;0.00;;;;;;;;1547895;28;83439;-65
2022/08/24 12:34:36;;;;;;;;;0.00;0.00;;;;;;;;1556810;28;83480;-65
2022/08/24 12:35:32;;;;;;;;;0.00;0.00;;;;;;;;1554372;28;83616;-65
2022/08/24 12:36:28;;;;;;;;;0.00;0.00;;;;;;;;1549029;28;83583;-65
2022/08/24 12:37:32;;;;;;;;;0.00;0.00;;;;;;;;1548177;28;83579;-65
2022/08/24 12:38:25;;;;;;;;;0.00;0.00;;;;;;;;1548931;28;83442;-65
2022/08/24 12:39:18;;;;;;;;;0.00;0.00;;;;;;;;1554320;28;83303;-64
2022/08/24 12:40:11;;;;;;;;;0.00;0.00;;;;;;;;1552352;28;83480;-68
2022/08/24 12:41:19;;;;;;;;;0.00;0.00;;;;;;;;1557992;28;83788;-68
2022/08/24 12:42:07;;;;;;;;;0.00;0.00;;;;;;;;1547086;28;84655;-69
2022/08/24 12:42:58;;;;;;;;;0.00;0.00;;;;;;;;1547206;28;83341;-68
2022/08/24 12:43:47;;;;;;;;;0.00;0.00;;;;;;;;1547694;28;83577;-68
2022/08/24 16:24:28;;;;;;;;;0.00;0.00;;;;;;;;1573646;27;83426;-70
2022/08/24 16:25:19;;;;;;;;;0.40;0.40;;;;;;;;1564591;27;83448;-72
2022/08/24 16:26:16;;;;;;;;;0.00;0.00;;;;;;;;1561676;27;83863;-71
2022/08/24 16:27:20;;;;;;;;;1.00;1.00;;;;;;;;1572196;27;83294;-71
2022/08/24 16:28:11;;;;;;;;;0.00;0.00;;;;;;;;1565903;27;83406;-71
2022/08/24 16:28:57;;;;;;;;;0.00;0.00;;;;;;;;1559760;27;83157;-71
2022/08/24 16:29:45;;;;;;;;;0.00;0.00;;;;;;;;1559711;28;83375;-73
2022/08/24 16:30:42;;;;;;;;;0.00;0.00;;;;;;;;1559516;28;83347;-71
2022/08/24 16:31:39;;;;;;;;;0.00;0.00;;;;;;;;1559503;28;83681;-73
2022/08/24 16:32:26;;;;;;;;;1.00;1.00;;;;;;;;1559636;27;83304;-70
2022/08/24 16:33:30;;;;;;;;;0.00;0.00;;;;;;;;1562045;27;83619;-70
2022/08/24 16:34:18;;;;;;;;;0.00;0.00;;;;;;;;1562062;27;83565;-70
2022/08/24 16:35:06;;;;;;;;;1.00;1.00;;;;;;;;1572074;27;84000;-71
2022/08/24 16:35:51;;;;;;;;;0.00;0.00;;;;;;;;1567117;27;83730;-70
2022/08/24 16:36:36;;;;;;;;;0.00;0.00;;;;;;;;1565967;27;83297;-70
2022/08/24 16:37:23;;;;;;;;;0.00;0.00;;;;;;;;1565844;27;83326;-69
2022/08/24 16:38:09;;;;;;;;;0.80;0.80;;;;;;;;1565248;27;86095;-70
2022/08/24 16:38:54;;;;;;;;;0.00;0.00;;;;;;;;1565392;27;83440;-70
2022/08/24 16:39:39;;;;;;;;;0.00;0.00;;;;;;;;1565185;27;83453;-70
2022/08/24 16:40:25;;;;;;;;;0.00;0.00;;;;;;;;1565800;27;83452;-70
2022/08/24 16:41:11;;;;;;;;;0.80;0.80;;;;;;;;1565919;27;83479;-70
2022/08/24 16:41:57;;;;;;;;;1.00;1.00;;;;;;;;1565811;27;83422;-70
2022/08/24 16:42:43;;;;;;;;;1.00;1.00;;;;;;;;1563814;27;83318;-70
2022/08/24 16:43:30;;;;;;;;;0.00;0.00;;;;;;;;1565238;27;84726;-69
2022/08/24 16:44:15;;;;;;;;;0.40;0.40;;;;;;;;1565283;27;83352;-69
2022/08/24 16:45:02;;;;;;;;;1.00;1.00;;;;;;;;1565325;27;83821;-69
2022/08/24 16:45:48;;;;;;;;;1.00;1.00;;;;;;;;1565723;27;83574;-69
2022/08/24 16:46:34;;;;;;;;;0.20;0.20;;;;;;;;1565800;27;83418;-69
2022/08/24 16:47:19;;;;;;;;;0.00;0.00;;;;;;;;1568724;27;83712;-71
2022/08/24 16:48:05;;;;;;;;;0.00;0.00;;;;;;;;1563925;27;83937;-69
2022/08/24 16:48:52;;;;;;;;;1.00;1.00;;;;;;;;1565290;27;83907;-70
2022/08/24 16:49:39;;;;;;;;;0.20;0.20;;;;;;;;1565760;27;84043;-69
2022/08/24 16:50:24;;;;;;;;;0.60;0.60;;;;;;;;1567500;27;83956;-69
2022/08/24 16:51:09;;;;;;;;;0.00;0.00;;;;;;;;1572151;27;83889;-70
2022/08/24 16:51:54;;;;;;;;;0.00;0.00;;;;;;;;1572097;27;83852;-69
2022/08/24 16:52:39;;;;;;;;;1.00;1.00;;;;;;;;1571463;27;87160;-69
2022/08/24 16:53:25;;;;;;;;;0.00;0.00;;;;;;;;1571707;27;83870;-69
2022/08/24 16:54:10;;;;;;;;;0.25;0.25;;;;;;;;1571831;27;84049;-69
2022/08/24 16:54:56;;;;;;;;;0.00;0.00;;;;;;;;1572079;27;83346;-69
2022/08/24 16:55:41;;;;;;;;;0.00;0.00;;;;;;;;1571951;27;83278;-69
2022/08/24 16:56:26;;;;;;;;;0.00;0.00;;;;;;;;1572094;27;83942;-69
2022/08/24 16:57:38;;;;;;;;;0.50;0.50;;;;;;;;1571999;27;83974;-69
2022/08/24 16:58:25;;;;;;;;;0.20;0.20;;;;;;;;1558267;27;84104;-69
2022/08/24 16:59:14;;;;;;;;;1.00;1.00;;;;;;;;1559404;28;83972;-69
2022/08/24 16:59:59;;;;;;;;;0.40;0.40;;;;;;;;1559469;27;83389;-69
2022/08/24 17:00:44;;;;;;;;;0.00;0.00;;;;;;;;1559417;28;83863;-70
2022/08/24 17:01:30;;;;;;;;;0.00;0.00;;;;;;;;1559469;28;83933;-69
2022/08/24 17:02:17;;;;;;;;;1.00;1.00;;;;;;;;1559375;28;83995;-69
2022/08/24 17:03:02;;;;;;;;;0.00;0.00;;;;;;;;1560425;27;83443;-70
2022/08/24 17:03:47;;;;;;;;;0.50;0.50;;;;;;;;1558973;28;84007;-69
2022/08/24 17:04:32;;;;;;;;;0.25;0.25;;;;;;;;1563129;27;83911;-69
2022/08/24 17:05:20;;;;;;;;;0.00;0.00;;;;;;;;1565707;27;83945;-69
2022/08/24 17:06:06;;;;;;;;;0.00;0.00;;;;;;;;1565401;27;85229;-69
2022/08/24 17:06:52;;;;;;;;;1.00;1.00;;;;;;;;1565226;27;84279;-69
2022/08/24 17:07:37;;;;;;;;;0.00;0.00;;;;;;;;1565416;27;83862;-69
2022/08/24 17:08:23;;;;;;;;;0.80;0.80;;;;;;;;1565768;27;83627;-69
2022/08/24 17:09:09;;;;;;;;;0.00;0.00;;;;;;;;1565582;27;83871;-69
2022/08/24 17:09:55;;;;;;;;;0.75;0.75;;;;;;;;1568115;27;83549;-69
2022/08/24 17:10:40;;;;;;;;;0.00;0.00;;;;;;;;1565548;27;83327;-69
2022/08/24 17:11:25;;;;;;;;;0.00;0.00;;;;;;;;1565848;27;83161;-69
2022/08/24 17:12:11;;;;;;;;;0.75;0.75;;;;;;;;1565431;27;83254;-69
2022/08/24 17:12:57;;;;;;;;;0.00;0.00;;;;;;;;1559880;27;83584;-69
2022/08/24 17:13:42;;;;;;;;;0.00;0.00;;;;;;;;1559351;28;83293;-70
2022/08/24 17:14:27;;;;;;;;;0.00;0.00;;;;;;;;1557910;27;83217;-70
2022/08/24 17:15:12;;;;;;;;;0.75;0.75;;;;;;;;1565294;27;83545;-70
2022/08/24 17:15:58;;;;;;;;;0.50;0.50;;;;;;;;1565670;27;83482;-70
2022/08/24 17:16:44;;;;;;;;;0.40;0.40;;;;;;;;1562387;27;83508;-70
2022/08/24 17:17:29;;;;;;;;;0.00;0.00;;;;;;;;1559346;27;83027;-70
2022/08/24 17:18:18;;;;;;;;;0.00;0.00;;;;;;;;1564865;27;83479;-70
2022/08/24 17:19:11;;;;;;;;;0.00;0.00;;;;;;;;1565661;27;83202;-70
2022/08/24 17:19:57;;;;;;;;;1.00;1.00;;;;;;;;1565640;27;83254;-69
2022/08/24 17:20:42;;;;;;;;;0.00;0.00;;;;;;;;1565726;27;83090;-70
2022/08/24 17:21:27;;;;;;;;;0.50;0.50;;;;;;;;1565685;27;83202;-71
2022/08/24 17:22:12;;;;;;;;;0.00;0.00;;;;;;;;1565679;27;83384;-71
2022/08/24 17:22:57;;;;;;;;;0.75;0.75;;;;;;;;1565482;27;83395;-73
2022/08/24 17:23:43;;;;;;;;;0.50;0.50;;;;;;;;1565300;27;83326;-71
2022/08/24 17:24:28;;;;;;;;;0.75;0.75;;;;;;;;1565025;27;83889;-70
2022/08/24 17:25:14;;;;;;;;;1.00;1.00;;;;;;;;1565220;27;83165;-71
2022/08/24 17:25:59;;;;;;;;;0.75;0.75;;;;;;;;1565216;27;83329;-71
2022/08/24 17:26:45;;;;;;;;;0.00;0.00;;;;;;;;1565546;27;83410;-71
2022/08/24 17:27:31;;;;;;;;;0.00;0.00;;;;;;;;1561166;27;83353;-71
2022/08/24 17:28:17;;;;;;;;;0.00;0.00;;;;;;;;1559390;27;83306;-71
2022/08/24 17:29:05;;;;;;;;;1.00;1.00;;;;;;;;1559185;28;83506;-70
2022/08/24 17:29:51;;;;;;;;;0.00;0.00;;;;;;;;1559155;28;83454;-70
2022/08/24 17:30:36;;;;;;;;;0.00;0.00;;;;;;;;1558688;28;83642;-71
2022/08/24 17:31:24;;;;;;;;;0.50;0.50;;;;;;;;1561727;28;83422;-71
2022/08/24 17:32:10;;;;;;;;;0.00;0.00;;;;;;;;1558861;27;83261;-71
2022/08/24 17:32:55;;;;;;;;;0.00;0.00;;;;;;;;1560066;27;83545;-72
2022/08/24 17:33:41;;;;;;;;;0.00;0.00;;;;;;;;1559326;27;83187;-72
2022/08/24 17:34:29;;;;;;;;;0.00;0.00;;;;;;;;1561523;27;83513;-71
2022/08/24 17:35:14;;;;;;;;;0.00;0.00;;;;;;;;1565080;27;84160;-74
2022/08/24 17:36:00;;;;;;;;;0.00;0.00;;;;;;;;1560441;28;86138;-73
2022/08/24 17:36:47;;;;;;;;;0.80;0.80;;;;;;;;1560949;28;83409;-73
2022/08/24 17:37:32;;;;;;;;;0.00;0.00;;;;;;;;1561161;28;83615;-73